Time;durP1;ratioP1;P1;durP2;ratioP2;P2;SDS_P1;SDS_P2;PMS_P1;PMS_P2;Temp;Humidity;BMP_temperature;BMP_pressure;BME280_temperature;BME280_humidity;BME280_pressure;Samples;Min_cycle;Max_cycle;Signal;HPM_P1;HPM_P2
2023/08/20 00:00:58;;;;;;;9.40;4.25;;;24.40;61.90;;;;;;5049292;28;20159;-64
2023/08/20 00:03:24;;;;;;;6.30;3.75;;;24.40;62.10;;;;;;5049118;28;20033;-64
2023/08/20 00:05:50;;;;;;;7.40;3.58;;;24.30;62.10;;;;;;5048566;28;20087;-65
2023/08/20 00:08:16;;;;;;;5.43;3.67;;;24.30;62.10;;;;;;5053572;28;20025;-65
2023/08/20 00:10:41;;;;;;;10.88;4.40;;;24.30;62.40;;;;;;5057186;28;20056;-64
2023/08/20 00:13:07;;;;;;;6.20;3.80;;;24.30;62.50;;;;;;5048357;28;20488;-64
2023/08/20 00:15:33;;;;;;;8.68;4.22;;;24.20;62.50;;;;;;5052966;28;20025;-64
2023/08/20 00:17:59;;;;;;;7.78;4.07;;;24.20;62.70;;;;;;5050169;28;20056;-63
2023/08/20 00:20:25;;;;;;;6.20;4.18;;;24.10;62.90;;;;;;5047206;28;20032;-63
2023/08/20 00:22:51;;;;;;;9.13;4.57;;;24.10;63.10;;;;;;5050097;28;20060;-64
2023/08/20 00:25:17;;;;;;;7.68;4.00;;;24.10;63.30;;;;;;5047432;28;20460;-63
2023/08/20 00:27:43;;;;;;;10.02;4.70;;;24.10;63.30;;;;;;5049466;28;20033;-63
2023/08/20 00:30:12;;;;;;;6.65;4.00;;;24.10;63.60;;;;;;5051334;28;20039;-65
2023/08/20 00:32:38;;;;;;;9.45;4.32;;;24.00;63.80;;;;;;5053499;28;20071;-65
2023/08/20 00:35:04;;;;;;;7.60;4.43;;;24.00;63.80;;;;;;5056857;28;20032;-64
2023/08/20 00:37:31;;;;;;;7.20;4.03;;;24.00;64.00;;;;;;5049962;28;20030;-64
2023/08/20 00:39:57;;;;;;;6.75;4.45;;;24.00;64.00;;;;;;5047820;28;20124;-63
2023/08/20 00:42:25;;;;;;;8.98;4.60;;;24.00;64.10;;;;;;5048284;28;20612;-64
2023/08/20 00:44:51;;;;;;;6.80;4.18;;;23.90;64.20;;;;;;5048345;28;20117;-65
2023/08/20 00:47:18;;;;;;;10.43;4.25;;;23.90;64.30;;;;;;5044880;28;20096;-64
2023/08/20 00:49:44;;;;;;;14.75;4.75;;;23.90;64.50;;;;;;5046561;28;20621;-65
2023/08/20 00:52:12;;;;;;;5.90;4.15;;;23.90;64.50;;;;;;5048536;28;20052;-64
2023/08/20 00:54:40;;;;;;;6.25;3.95;;;23.80;64.60;;;;;;5051456;28;20044;-64
2023/08/20 00:57:06;;;;;;;10.70;4.07;;;23.80;64.80;;;;;;5076630;28;20063;-64
2023/08/20 00:59:33;;;;;;;8.70;4.20;;;23.80;64.90;;;;;;5047729;28;20028;-63
2023/08/20 01:02:00;;;;;;;5.70;3.83;;;23.80;65.00;;;;;;5045092;28;20060;-64
2023/08/20 01:04:26;;;;;;;9.02;4.18;;;23.80;64.90;;;;;;5050786;28;20021;-64
2023/08/20 01:07:26;;;;;;;5.47;3.92;;;23.70;64.70;;;;;;5050372;28;20055;-65
2023/08/20 01:10:08;;;;;;;7.63;3.85;;;23.70;65.50;;;;;;5041810;28;20061;-64
2023/08/20 01:12:35;;;;;;;10.73;3.47;;;23.70;65.30;;;;;;5041945;28;20034;-64
2023/08/20 01:15:01;;;;;;;9.65;4.47;;;23.70;64.30;;;;;;5049717;28;20030;-64
2023/08/20 01:17:26;;;;;;;4.85;3.55;;;23.70;64.60;;;;;;5052242;28;20032;-64
2023/08/20 01:19:52;;;;;;;4.40;3.53;;;23.60;64.70;;;;;;5048395;28;20372;-65
2023/08/20 01:22:43;;;;;;;6.68;4.20;;;23.60;64.80;;;;;;5049791;28;20378;-65
2023/08/20 01:25:41;;;;;;;5.93;3.72;;;23.50;65.50;;;;;;5047175;28;20025;-64
2023/08/20 01:28:21;;;;;;;6.72;4.10;;;23.50;65.90;;;;;;5046520;28;20032;-65
2023/08/20 01:30:48;;;;;;;6.40;4.35;;;23.50;65.90;;;;;;5052182;28;20134;-64
2023/08/20 01:33:14;;;;;;;9.38;3.83;;;23.50;65.30;;;;;;5051368;28;20770;-64
2023/08/20 01:35:40;;;;;;;11.00;4.47;;;23.40;65.60;;;;;;5051719;28;20032;-64
2023/08/20 01:38:07;;;;;;;7.55;4.65;;;23.40;66.00;;;;;;5047686;28;20035;-64
2023/08/20 01:40:33;;;;;;;7.32;4.22;;;23.40;65.90;;;;;;5050238;28;20025;-64
2023/08/20 01:42:59;;;;;;;6.53;4.15;;;23.40;66.20;;;;;;5043087;28;20029;-64
2023/08/20 01:45:26;;;;;;;6.45;4.18;;;23.40;66.40;;;;;;5048283;28;20032;-64
2023/08/20 01:47:51;;;;;;;6.78;4.45;;;23.30;66.20;;;;;;5049778;28;20425;-64
2023/08/20 01:50:17;;;;;;;7.82;4.55;;;23.30;66.40;;;;;;5051821;28;20040;-64
2023/08/20 01:52:43;;;;;;;6.47;4.40;;;23.20;66.40;;;;;;5049082;28;20025;-64
2023/08/20 01:55:09;;;;;;;6.72;4.53;;;23.30;66.60;;;;;;5046380;28;20020;-64
2023/08/20 01:57:34;;;;;;;8.55;4.63;;;23.20;66.60;;;;;;5057786;28;20076;-63
2023/08/20 02:00:00;;;;;;;8.45;4.45;;;23.20;66.70;;;;;;5058853;28;20379;-63
2023/08/20 02:02:26;;;;;;;5.90;4.43;;;23.20;66.80;;;;;;5046984;28;20044;-63
2023/08/20 02:04:51;;;;;;;5.20;3.88;;;23.20;66.80;;;;;;5044166;28;20029;-64
2023/08/20 02:07:17;;;;;;;5.53;4.40;;;23.20;66.90;;;;;;5050984;28;20139;-63
2023/08/20 02:09:43;;;;;;;15.82;4.93;;;23.10;67.00;;;;;;5046295;28;20061;-63
2023/08/20 02:12:08;;;;;;;5.95;4.00;;;23.10;67.00;;;;;;5046706;28;20523;-63
2023/08/20 02:14:35;;;;;;;6.50;4.43;;;23.10;67.00;;;;;;5042909;28;20061;-64
2023/08/20 02:17:01;;;;;;;8.55;4.30;;;23.10;67.10;;;;;;5046819;28;20387;-63
2023/08/20 02:19:27;;;;;;;7.82;3.97;;;23.10;67.10;;;;;;5041190;28;20693;-65
2023/08/20 02:21:53;;;;;;;8.32;5.25;;;23.10;67.30;;;;;;5043940;28;20029;-64
2023/08/20 02:24:19;;;;;;;7.35;4.07;;;23.10;67.40;;;;;;5042130;28;20111;-64
2023/08/20 02:26:45;;;;;;;9.48;4.05;;;23.10;67.40;;;;;;5045315;28;20025;-64
2023/08/20 02:29:11;;;;;;;7.18;4.28;;;23.00;67.30;;;;;;5041835;28;20024;-63
2023/08/20 02:31:37;;;;;;;7.03;4.10;;;23.00;67.40;;;;;;5048107;28;20056;-64
2023/08/20 02:34:03;;;;;;;6.45;4.20;;;23.00;67.50;;;;;;5047961;28;20033;-64
2023/08/20 02:36:29;;;;;;;6.95;4.20;;;23.00;67.50;;;;;;5053661;28;20033;-64
2023/08/20 02:38:54;;;;;;;8.48;5.53;;;22.90;67.60;;;;;;5046058;28;20024;-64
2023/08/20 02:41:20;;;;;;;6.30;4.07;;;22.90;67.60;;;;;;5048073;28;20040;-63
2023/08/20 02:43:46;;;;;;;8.80;4.60;;;22.90;67.70;;;;;;5047654;28;20025;-64
2023/08/20 02:46:12;;;;;;;6.50;4.20;;;22.90;67.90;;;;;;5045833;28;20107;-64
2023/08/20 02:48:37;;;;;;;10.40;4.10;;;22.90;68.10;;;;;;5049504;28;20819;-63
2023/08/20 02:51:03;;;;;;;9.50;4.22;;;22.80;68.10;;;;;;5047702;28;20039;-64
2023/08/20 02:53:29;;;;;;;7.55;4.57;;;22.80;68.20;;;;;;5042314;28;20372;-64
2023/08/20 02:55:56;;;;;;;6.68;4.25;;;22.80;68.30;;;;;;5047655;28;20027;-64
2023/08/20 02:58:22;;;;;;;6.13;4.13;;;22.90;68.30;;;;;;5039220;28;20029;-64
2023/08/20 03:00:47;;;;;;;11.20;4.63;;;22.80;68.30;;;;;;5040916;28;20029;-63
2023/08/20 03:03:13;;;;;;;6.95;4.40;;;22.80;68.40;;;;;;5045609;28;20040;-64
2023/08/20 03:05:39;;;;;;;7.65;4.88;;;22.80;68.50;;;;;;5050582;28;20047;-63
2023/08/20 03:08:06;;;;;;;8.18;4.47;;;22.80;68.70;;;;;;5043100;28;20027;-63
2023/08/20 03:10:32;;;;;;;6.88;4.32;;;22.70;68.70;;;;;;5049603;28;20052;-64
2023/08/20 03:13:00;;;;;;;7.07;4.68;;;22.70;68.70;;;;;;5048801;28;20053;-63
2023/08/20 03:15:26;;;;;;;9.38;5.07;;;22.70;68.70;;;;;;5046673;28;20102;-63
2023/08/20 03:17:52;;;;;;;5.90;4.20;;;22.70;68.80;;;;;;5043990;28;20052;-63
2023/08/20 03:20:18;;;;;;;7.20;4.85;;;22.70;68.90;;;;;;5049423;28;20052;-64
2023/08/20 03:22:43;;;;;;;9.20;4.65;;;22.70;68.90;;;;;;5049670;28;20024;-64
2023/08/20 03:25:09;;;;;;;8.32;4.57;;;22.70;68.90;;;;;;5041929;28;20037;-64
2023/08/20 03:27:35;;;;;;;14.30;5.05;;;22.70;69.60;;;;;;5047645;28;20093;-64
2023/08/20 03:30:01;;;;;;;6.35;4.20;;;22.70;68.90;;;;;;5040895;28;20037;-63
2023/08/20 03:32:27;;;;;;;6.75;4.65;;;22.70;68.90;;;;;;5043968;28;20025;-63
2023/08/20 03:34:53;;;;;;;7.15;4.95;;;22.70;69.10;;;;;;5051636;28;20021;-64
2023/08/20 03:37:19;;;;;;;7.35;4.93;;;22.70;69.10;;;;;;5046656;28;20021;-63
2023/08/20 03:39:45;;;;;;;8.70;4.55;;;22.60;69.20;;;;;;5046947;28;20035;-63
2023/08/20 03:42:10;;;;;;;7.82;4.95;;;22.60;69.20;;;;;;5037188;28;20529;-64
2023/08/20 03:44:36;;;;;;;7.60;4.57;;;22.60;69.20;;;;;;5047165;28;20423;-63
2023/08/20 03:47:02;;;;;;;8.40;4.72;;;22.60;69.20;;;;;;5045604;28;20794;-63
2023/08/20 03:49:27;;;;;;;8.73;4.78;;;22.60;69.30;;;;;;5048829;28;20025;-63
2023/08/20 03:51:53;;;;;;;8.75;4.72;;;22.60;69.20;;;;;;5049316;28;20024;-63
2023/08/20 03:54:19;;;;;;;6.25;4.60;;;22.60;69.30;;;;;;5051485;28;20035;-64
2023/08/20 03:56:44;;;;;;;5.57;4.32;;;22.60;69.30;;;;;;5044075;28;20021;-63
2023/08/20 03:59:11;;;;;;;8.55;3.97;;;22.50;69.30;;;;;;5040440;28;20053;-63
2023/08/20 04:01:37;;;;;;;10.57;4.90;;;22.50;69.40;;;;;;5038782;28;20025;-62
2023/08/20 04:04:03;;;;;;;8.88;4.88;;;22.50;69.60;;;;;;5041379;28;20341;-63
2023/08/20 04:06:29;;;;;;;7.35;4.88;;;22.50;69.70;;;;;;5049261;28;20473;-63
2023/08/20 04:08:55;;;;;;;8.50;4.60;;;22.50;69.80;;;;;;5047228;28;20049;-63
2023/08/20 04:11:21;;;;;;;7.82;4.70;;;22.50;69.80;;;;;;5048785;28;20115;-63
2023/08/20 04:13:46;;;;;;;9.48;5.20;;;22.50;69.90;;;;;;5047445;28;20619;-63
2023/08/20 04:16:13;;;;;;;6.13;4.85;;;22.50;69.90;;;;;;5050209;28;20402;-63
2023/08/20 04:18:39;;;;;;;6.20;4.28;;;22.40;69.90;;;;;;5047980;28;20068;-63
2023/08/20 04:21:05;;;;;;;7.07;4.55;;;22.50;70.00;;;;;;5051252;28;20028;-62
2023/08/20 04:23:30;;;;;;;9.07;5.05;;;22.40;70.00;;;;;;5052352;28;20025;-63
2023/08/20 04:25:56;;;;;;;8.32;4.90;;;22.40;70.00;;;;;;5044538;28;20033;-63
2023/08/20 04:28:22;;;;;;;9.27;4.97;;;22.40;70.00;;;;;;5047899;28;20033;-63
2023/08/20 04:30:49;;;;;;;8.65;5.65;;;22.40;70.00;;;;;;5048440;28;20040;-62
2023/08/20 04:33:14;;;;;;;9.73;5.20;;;22.40;70.10;;;;;;5048248;28;20025;-63
2023/08/20 04:35:40;;;;;;;8.20;4.75;;;22.30;70.10;;;;;;5054546;28;20392;-63
2023/08/20 04:38:07;;;;;;;9.07;4.85;;;22.30;70.10;;;;;;5047980;28;20033;-63
2023/08/20 04:40:33;;;;;;;5.68;4.18;;;22.30;70.10;;;;;;5045904;28;20108;-63
2023/08/20 04:42:59;;;;;;;6.55;4.72;;;22.30;70.20;;;;;;5047963;28;20142;-63
2023/08/20 04:45:24;;;;;;;5.55;4.45;;;22.30;70.20;;;;;;5048335;28;20056;-63
2023/08/20 04:47:50;;;;;;;9.43;5.10;;;22.30;70.20;;;;;;5049721;28;20060;-64
2023/08/20 04:50:15;;;;;;;6.43;4.50;;;22.30;70.20;;;;;;5055014;28;20056;-64
2023/08/20 04:52:41;;;;;;;5.82;4.22;;;22.30;70.40;;;;;;5055573;28;20083;-63
2023/08/20 04:55:08;;;;;;;6.55;4.35;;;22.30;70.50;;;;;;5046362;28;20086;-64
2023/08/20 04:57:34;;;;;;;7.75;4.93;;;22.30;70.60;;;;;;5055660;28;20017;-63
2023/08/20 05:00:00;;;;;;;5.72;3.88;;;22.30;70.70;;;;;;5048927;28;20029;-63
2023/08/20 05:02:25;;;;;;;6.15;4.28;;;22.30;70.70;;;;;;5045401;28;20039;-63
2023/08/20 05:04:51;;;;;;;10.82;4.60;;;22.40;70.80;;;;;;5043630;28;20029;-63
2023/08/20 05:07:17;;;;;;;5.18;4.43;;;22.40;70.90;;;;;;5052929;28;20025;-65
2023/08/20 05:09:43;;;;;;;6.88;4.63;;;22.40;70.90;;;;;;5052350;28;20075;-63
2023/08/20 05:12:09;;;;;;;6.93;4.30;;;22.40;70.90;;;;;;5056612;28;20028;-64
2023/08/20 05:14:34;;;;;;;8.43;4.70;;;22.50;71.00;;;;;;5048292;28;20059;-63
2023/08/20 05:17:00;;;;;;;8.80;4.97;;;22.50;71.00;;;;;;5046241;28;20035;-64
2023/08/20 05:19:26;;;;;;;7.32;4.95;;;22.50;71.00;;;;;;5043079;28;20423;-62
2023/08/20 05:21:55;;;;;;;6.32;4.57;;;22.60;71.10;;;;;;5045225;28;20021;-64
2023/08/20 05:24:22;;;;;;;7.25;4.30;;;22.60;71.10;;;;;;5045760;28;20515;-63
2023/08/20 05:26:49;;;;;;;7.40;4.50;;;22.70;71.00;;;;;;5046850;28;20078;-63
2023/08/20 05:29:15;;;;;;;5.55;4.10;;;22.80;71.00;;;;;;5047762;28;20021;-65
2023/08/20 05:31:41;;;;;;;12.65;4.35;;;22.90;70.80;;;;;;5055374;28;20048;-63
2023/08/20 05:34:06;;;;;;;5.22;4.72;;;22.90;70.60;;;;;;5062653;28;20025;-63
2023/08/20 05:36:32;;;;;;;8.65;4.85;;;22.90;70.40;;;;;;5058240;28;20047;-63
2023/08/20 05:38:57;;;;;;;8.63;4.28;;;23.00;70.40;;;;;;5041861;28;20489;-64
2023/08/20 05:41:23;;;;;;;7.72;4.72;;;23.10;70.20;;;;;;5048599;28;20064;-64
2023/08/20 05:43:49;;;;;;;7.15;4.72;;;23.10;70.20;;;;;;5046399;28;20584;-63
2023/08/20 05:46:14;;;;;;;7.78;4.32;;;23.20;70.20;;;;;;5051820;28;20033;-62
2023/08/20 05:48:40;;;;;;;6.70;4.75;;;23.20;70.00;;;;;;5053485;28;20071;-63
2023/08/20 05:51:06;;;;;;;8.02;4.93;;;23.30;69.90;;;;;;5046289;28;20110;-62
2023/08/20 05:53:31;;;;;;;7.80;4.63;;;23.30;69.80;;;;;;5050919;28;20107;-65
2023/08/20 05:55:57;;;;;;;8.48;4.80;;;23.40;69.80;;;;;;5042143;28;20059;-63
2023/08/20 05:58:23;;;;;;;8.45;4.95;;;23.50;69.90;;;;;;5052361;28;20033;-63
2023/08/20 06:00:48;;;;;;;9.27;4.75;;;23.60;69.80;;;;;;5045115;28;20028;-63
2023/08/20 06:03:14;;;;;;;6.78;4.25;;;23.70;69.70;;;;;;5041963;28;20029;-63
2023/08/20 06:05:40;;;;;;;6.15;4.22;;;23.80;69.40;;;;;;5049162;28;20041;-64
2023/08/20 06:08:06;;;;;;;5.20;4.28;;;23.90;69.10;;;;;;5042594;28;20464;-64
2023/08/20 06:10:31;;;;;;;7.97;4.57;;;23.90;68.90;;;;;;5048213;28;20384;-64
2023/08/20 06:12:57;;;;;;;7.32;4.85;;;24.00;68.90;;;;;;5048203;28;20021;-64
2023/08/20 06:15:23;;;;;;;9.13;5.00;;;24.10;68.80;;;;;;5055277;28;20593;-63
2023/08/20 06:17:48;;;;;;;7.75;4.32;;;24.20;68.80;;;;;;5043055;28;20402;-64
2023/08/20 06:20:14;;;;;;;7.30;4.90;;;24.30;68.50;;;;;;5044635;28;20025;-62
2023/08/20 06:22:40;;;;;;;9.25;4.43;;;24.40;68.20;;;;;;5045694;28;20029;-62
2023/08/20 06:25:06;;;;;;;7.30;4.57;;;24.50;68.10;;;;;;5047073;28;20037;-63
2023/08/20 06:27:31;;;;;;;8.32;4.88;;;24.60;68.00;;;;;;5046127;28;20480;-63
2023/08/20 06:29:57;;;;;;;8.15;4.35;;;24.70;67.90;;;;;;5042542;28;20037;-63
2023/08/20 06:32:23;;;;;;;8.27;4.60;;;24.80;67.70;;;;;;5040277;28;20028;-63
2023/08/20 06:34:49;;;;;;;7.22;4.57;;;25.00;67.50;;;;;;5041617;28;20075;-63
2023/08/20 06:37:15;;;;;;;7.20;5.05;;;25.10;67.10;;;;;;5051024;28;20041;-63
2023/08/20 06:39:41;;;;;;;5.97;4.57;;;25.20;67.00;;;;;;5049717;28;20032;-64
2023/08/20 06:42:06;;;;;;;9.15;5.25;;;25.30;66.90;;;;;;5045221;28;20024;-64
2023/08/20 06:44:32;;;;;;;7.38;4.50;;;25.40;66.90;;;;;;5051992;28;20590;-64
2023/08/20 06:46:58;;;;;;;9.32;4.63;;;25.40;66.80;;;;;;5050375;28;20035;-64
2023/08/20 06:49:23;;;;;;;7.07;4.90;;;25.60;66.90;;;;;;5052689;28;20036;-64
2023/08/20 06:51:49;;;;;;;8.40;4.60;;;25.70;66.80;;;;;;5046333;28;20045;-64
2023/08/20 06:54:18;;;;;;;7.55;4.40;;;25.80;66.70;;;;;;5045290;28;20033;-64
2023/08/20 06:56:43;;;;;;;10.75;4.90;;;26.00;66.40;;;;;;5045142;28;20108;-64
2023/08/20 06:59:10;;;;;;;10.30;4.13;;;26.20;66.30;;;;;;5044194;28;20118;-64
2023/08/20 07:01:36;;;;;;;10.55;4.82;;;26.30;66.10;;;;;;5045774;28;20123;-64
2023/08/20 07:04:02;;;;;;;5.80;3.88;;;26.40;65.90;;;;;;5048957;28;20177;-63
2023/08/20 07:06:27;;;;;;;14.25;4.60;;;26.50;65.60;;;;;;5042347;28;20025;-63
2023/08/20 07:08:53;;;;;;;10.73;4.63;;;26.70;65.50;;;;;;5044816;28;20052;-65
2023/08/20 07:11:19;;;;;;;10.52;4.40;;;26.80;65.20;;;;;;5047429;28;20559;-64
2023/08/20 07:13:45;;;;;;;10.38;4.40;;;26.90;65.20;;;;;;5051067;28;20098;-64
2023/08/20 07:16:11;;;;;;;5.32;4.15;;;27.10;65.10;;;;;;5046949;28;20032;-63
2023/08/20 07:18:36;;;;;;;10.10;4.40;;;27.20;65.00;;;;;;5052120;28;20025;-64
2023/08/20 07:21:02;;;;;;;7.65;4.70;;;27.30;64.80;;;;;;5047690;28;20547;-64
2023/08/20 07:23:28;;;;;;;7.35;4.32;;;27.40;64.40;;;;;;5049890;28;20479;-64
2023/08/20 07:26:08;;;;;;;6.63;4.00;;;27.60;63.90;;;;;;5048871;28;20063;-64
2023/08/20 07:31:19;;;;;;;11.10;4.60;;;27.80;62.50;;;;;;5046806;28;20103;-66
2023/08/20 07:33:48;;;;;;;7.07;4.55;;;27.90;62.50;;;;;;5043552;28;20499;-65
2023/08/20 07:36:15;;;;;;;9.75;4.03;;;28.00;61.20;;;;;;5048477;28;20446;-65
2023/08/20 07:38:42;;;;;;;10.52;3.83;;;28.10;60.90;;;;;;5047178;28;20017;-63
2023/08/20 07:41:08;;;;;;;7.50;3.95;;;28.30;61.10;;;;;;5046440;28;20029;-64
2023/08/20 07:43:34;;;;;;;7.95;4.80;;;28.40;60.50;;;;;;5045358;28;20029;-64
2023/08/20 07:45:59;;;;;;;5.95;3.95;;;28.50;60.10;;;;;;5046754;28;20091;-64
2023/08/20 07:48:25;;;;;;;7.43;4.00;;;28.70;59.90;;;;;;5051855;28;20029;-64
2023/08/20 07:50:51;;;;;;;8.18;4.03;;;28.80;59.50;;;;;;5051198;28;20116;-65
2023/08/20 07:53:16;;;;;;;6.15;4.20;;;28.90;59.20;;;;;;5054423;28;20687;-65
2023/08/20 07:55:42;;;;;;;12.13;4.28;;;29.00;58.90;;;;;;5048470;28;20025;-65
2023/08/20 07:58:08;;;;;;;6.88;3.55;;;29.10;58.60;;;;;;5039984;28;20381;-65
2023/08/20 08:00:34;;;;;;;7.45;3.88;;;29.20;58.00;;;;;;5054930;28;20108;-65
2023/08/20 08:02:59;;;;;;;6.25;3.75;;;29.30;58.00;;;;;;5049723;28;20044;-65
2023/08/20 08:05:25;;;;;;;6.38;4.30;;;29.40;57.90;;;;;;5046237;28;20075;-65
2023/08/20 08:07:51;;;;;;;12.40;4.40;;;29.40;57.30;;;;;;5049578;28;20021;-65
2023/08/20 08:10:16;;;;;;;18.80;4.22;;;29.60;57.20;;;;;;5048622;28;20041;-65
2023/08/20 08:12:42;;;;;;;5.72;4.15;;;29.70;57.20;;;;;;5053244;28;20048;-64
2023/08/20 08:15:08;;;;;;;14.80;4.20;;;29.70;57.00;;;;;;5052718;28;20146;-65
2023/08/20 08:17:33;;;;;;;7.07;4.32;;;29.80;57.10;;;;;;5050116;28;20048;-65
2023/08/20 08:19:59;;;;;;;10.75;4.35;;;30.00;56.60;;;;;;5047835;28;20701;-65
2023/08/20 08:22:25;;;;;;;6.57;4.05;;;30.10;56.50;;;;;;5045397;28;20047;-65
2023/08/20 08:24:50;;;;;;;10.02;4.28;;;30.20;56.30;;;;;;5043562;28;20396;-64
2023/08/20 08:27:23;;;;;;;8.25;4.40;;;30.30;55.70;;;;;;5046897;28;20033;-65
2023/08/20 08:29:48;;;;;;;14.98;4.63;;;30.30;54.10;;;;;;5058186;28;20045;-65
2023/08/20 08:32:14;;;;;;;6.93;4.25;;;30.40;54.90;;;;;;5051381;28;20031;-66
2023/08/20 08:34:40;;;;;;;8.27;4.05;;;30.50;54.40;;;;;;5045560;28;20067;-65
2023/08/20 08:37:05;;;;;;;15.93;4.80;;;30.60;54.40;;;;;;5054506;28;20111;-66
2023/08/20 08:39:33;;;;;;;9.95;4.90;;;30.60;53.90;;;;;;5050256;28;20060;-65
2023/08/20 08:42:04;;;;;;;9.60;4.32;;;30.70;54.30;;;;;;5050566;28;20025;-65
2023/08/20 08:44:35;;;;;;;7.20;4.53;;;30.70;53.40;;;;;;5047701;28;20453;-66
2023/08/20 08:47:04;;;;;;;6.70;4.57;;;30.80;53.70;;;;;;5053750;28;20695;-65
2023/08/20 08:49:33;;;;;;;8.45;4.70;;;30.90;53.20;;;;;;5049200;28;20029;-65
2023/08/20 08:51:59;;;;;;;10.95;4.80;;;30.90;52.90;;;;;;5051816;28;20116;-66
2023/08/20 08:54:26;;;;;;;7.72;4.90;;;31.00;52.90;;;;;;5048640;28;20029;-66
2023/08/20 08:56:52;;;;;;;8.38;4.65;;;31.00;53.00;;;;;;5047322;28;20111;-65
2023/08/20 08:59:18;;;;;;;15.98;4.72;;;31.10;52.10;;;;;;5042008;28;20159;-66
2023/08/20 09:01:44;;;;;;;9.80;4.97;;;31.10;52.50;;;;;;5049699;28;20167;-65
2023/08/20 09:04:10;;;;;;;8.50;4.35;;;31.20;52.10;;;;;;5049772;28;20503;-66
2023/08/20 09:06:50;;;;;;;6.53;3.75;;;31.30;52.00;;;;;;5046412;28;20041;-65
2023/08/20 09:09:18;;;;;;;6.95;4.30;;;31.40;50.70;;;;;;5049990;28;20068;-66
2023/08/20 09:11:43;;;;;;;8.65;4.28;;;31.50;51.80;;;;;;5051200;28;20105;-66
2023/08/20 09:14:27;;;;;;;5.93;3.50;;;31.60;51.50;;;;;;5053611;28;20029;-67
2023/08/20 09:17:00;;;;;;;7.25;4.85;;;31.70;49.70;;;;;;5048641;28;20073;-65
2023/08/20 09:19:30;;;;;;;11.63;4.33;;;31.90;51.30;;;;;;5050012;28;20357;-65
2023/08/20 09:21:58;;;;;;;7.85;3.95;;;32.00;51.10;;;;;;5046315;28;20021;-65
2023/08/20 09:24:36;;;;;;;7.78;4.07;;;32.10;51.00;;;;;;5044277;28;20027;-65
2023/08/20 09:27:04;;;;;;;6.70;3.80;;;32.30;49.10;;;;;;5042742;28;20028;-65
2023/08/20 09:29:33;;;;;;;9.57;4.20;;;32.40;48.80;;;;;;5047232;28;20041;-65
2023/08/20 09:32:02;;;;;;;7.47;3.30;;;32.50;48.20;;;;;;5048683;28;20446;-65
2023/08/20 09:34:40;;;;;;;5.72;2.63;;;32.50;46.90;;;;;;5046459;28;20052;-65
2023/08/20 09:37:13;;;;;;;6.47;3.60;;;32.60;45.70;;;;;;5050985;28;20037;-64
2023/08/20 09:39:39;;;;;;;8.55;3.70;;;32.70;45.60;;;;;;5048107;28;20115;-65
2023/08/20 09:42:06;;;;;;;6.95;3.55;;;32.80;46.30;;;;;;5039715;28;20027;-65
2023/08/20 09:44:38;;;;;;;7.65;3.35;;;32.90;47.10;;;;;;5050356;28;20032;-65
2023/08/20 09:47:07;;;;;;;5.47;3.58;;;32.90;46.20;;;;;;5048365;28;20475;-65
2023/08/20 09:49:37;;;;;;;5.63;3.28;;;33.10;47.40;;;;;;5051411;28;20020;-65
2023/08/20 09:52:15;;;;;;;4.82;3.20;;;33.20;46.80;;;;;;5051422;28;20033;-64
2023/08/20 09:54:47;;;;;;;5.03;3.10;;;33.30;46.50;;;;;;5048448;28;20036;-66
2023/08/20 09:57:23;;;;;;;6.32;2.75;;;33.50;44.80;;;;;;5045842;28;20023;-65
2023/08/20 09:59:50;;;;;;;8.52;3.30;;;33.60;45.70;;;;;;5035058;28;20487;-65
2023/08/20 10:02:16;;;;;;;6.10;3.17;;;33.80;45.00;;;;;;5037535;28;20029;-65
2023/08/20 10:04:43;;;;;;;9.73;3.10;;;33.90;45.20;;;;;;5036841;28;20116;-65
2023/08/20 10:07:11;;;;;;;6.53;3.15;;;34.00;44.90;;;;;;5037407;28;20412;-65
2023/08/20 10:09:39;;;;;;;15.93;3.20;;;34.10;44.10;;;;;;5040549;28;20072;-65
2023/08/20 10:12:05;;;;;;;8.77;2.83;;;34.20;43.70;;;;;;5041525;28;20019;-64
2023/08/20 10:14:31;;;;;;;7.38;2.97;;;34.30;43.70;;;;;;5039583;28;20021;-65
2023/08/20 10:16:56;;;;;;;6.82;2.50;;;34.40;43.40;;;;;;5046097;28;20029;-65
2023/08/20 10:19:24;;;;;;;6.82;3.25;;;34.40;43.90;;;;;;5036847;28;20021;-64
2023/08/20 10:21:52;;;;;;;6.53;2.63;;;34.50;43.50;;;;;;5045217;28;20128;-65
2023/08/20 10:24:19;;;;;;;9.43;2.75;;;34.50;43.50;;;;;;5043285;28;20025;-66
2023/08/20 10:26:48;;;;;;;4.68;2.53;;;34.50;43.20;;;;;;5040975;28;21226;-64
2023/08/20 10:29:41;;;;;;;8.75;4.00;;;34.50;41.80;;;;;;5045849;28;20037;-65
2023/08/20 10:32:11;;;;;;;6.15;2.72;;;34.60;42.60;;;;;;5039608;28;20033;-65
2023/08/20 10:34:38;;;;;;;10.63;3.17;;;34.70;42.10;;;;;;5042122;28;20377;-65
2023/08/20 10:37:13;;;;;;;7.60;2.95;;;34.80;42.40;;;;;;5039812;28;20452;-65
2023/08/20 10:39:39;;;;;;;8.40;2.85;;;34.90;41.60;;;;;;5045454;28;20356;-65
2023/08/20 10:42:19;;;;;;;6.20;2.90;;;35.00;41.60;;;;;;5038240;28;20460;-65
2023/08/20 10:45:12;;;;;;;4.80;2.40;;;35.10;41.40;;;;;;5048051;28;20048;-64
2023/08/20 10:47:44;;;;;;;6.53;2.63;;;35.20;42.50;;;;;;5053358;28;20536;-65
2023/08/20 10:50:12;;;;;;;12.63;3.87;;;35.20;41.20;;;;;;5042550;28;20054;-67
2023/08/20 10:52:56;;;;;;;7.75;2.92;;;35.30;41.10;;;;;;5041172;28;20028;-65
2023/08/20 10:55:25;;;;;;;7.00;2.30;;;35.40;39.50;;;;;;5044701;28;20029;-64
2023/08/20 10:57:59;;;;;;;6.63;2.45;;;35.40;39.60;;;;;;5045757;28;20108;-65
2023/08/20 11:00:25;;;;;;;;;;;35.40;38.80;;;;;;5047202;28;20025;-66
2023/08/20 11:02:52;;;;;;;6.55;2.40;;;35.40;40.80;;;;;;5045490;28;19923;-67
2023/08/20 11:05:19;;;;;;;5.15;2.45;;;35.40;41.20;;;;;;5046324;28;20025;-65
2023/08/20 11:07:49;;;;;;;6.53;2.78;;;35.40;40.90;;;;;;5051715;28;20016;-64
2023/08/20 11:10:17;;;;;;;5.22;2.40;;;35.40;40.70;;;;;;5045954;28;20442;-65
2023/08/20 11:12:46;;;;;;;6.85;2.58;;;35.50;41.30;;;;;;5050331;28;20033;-66
2023/08/20 11:15:12;;;;;;;4.80;2.38;;;35.50;40.30;;;;;;5045893;28;20125;-66
2023/08/20 11:17:47;;;;;;;7.25;2.38;;;35.60;41.40;;;;;;5047143;28;20112;-66
2023/08/20 11:20:16;;;;;;;8.15;2.33;;;35.70;40.00;;;;;;5050186;28;20028;-66
2023/08/20 11:22:42;;;;;;;7.95;2.60;;;35.80;39.00;;;;;;5044112;28;20047;-65
2023/08/20 11:25:12;;;;;;;8.15;2.50;;;35.90;38.50;;;;;;5044850;28;20587;-65
2023/08/20 11:27:42;;;;;;;4.85;2.60;;;35.90;37.50;;;;;;4952195;28;20684;-66
2023/08/20 11:30:11;;;;;;;8.55;2.65;;;35.90;38.20;;;;;;5046705;28;20033;-66
2023/08/20 11:32:37;;;;;;;8.40;3.00;;;35.90;38.40;;;;;;5045654;28;20140;-65
2023/08/20 11:35:04;;;;;;;8.85;2.80;;;35.90;39.30;;;;;;5050116;28;20136;-66
2023/08/20 11:37:30;;;;;;;6.97;2.40;;;35.90;39.10;;;;;;5050451;28;20025;-65
2023/08/20 11:39:56;;;;;;;4.50;2.20;;;36.00;39.30;;;;;;5041182;28;20043;-65
2023/08/20 11:42:23;;;;;;;10.45;2.08;;;36.10;38.60;;;;;;5044217;28;20060;-65
2023/08/20 11:44:49;;;;;;;5.75;2.60;;;36.10;39.20;;;;;;5043908;28;20082;-65
2023/08/20 11:47:18;;;;;;;11.40;2.45;;;36.20;37.90;;;;;;5047600;28;20021;-65
2023/08/20 11:49:44;;;;;;;8.93;2.03;;;36.30;37.00;;;;;;5052158;28;20029;-65
2023/08/20 11:52:12;;;;;;;3.58;2.30;;;36.40;37.00;;;;;;5049335;28;20395;-64
2023/08/20 11:54:38;;;;;;;6.82;2.03;;;36.40;36.70;;;;;;5052420;28;20079;-65
2023/08/20 11:57:06;;;;;;;5.15;2.33;;;36.50;37.30;;;;;;5054417;28;20025;-65
2023/08/20 11:59:32;;;;;;;4.30;2.05;;;36.60;36.70;;;;;;5046215;28;20661;-65
2023/08/20 12:02:00;;;;;;;4.55;1.65;;;36.60;37.10;;;;;;5039599;28;20096;-65
2023/08/20 12:04:27;;;;;;;5.35;2.00;;;36.70;36.10;;;;;;5047569;28;20499;-65
2023/08/20 12:07:10;;;;;;;6.95;2.22;;;36.80;35.20;;;;;;5049458;28;20043;-65
2023/08/20 12:09:36;;;;;;;8.00;1.90;;;36.80;33.30;;;;;;5046191;28;20063;-65
2023/08/20 12:12:02;;;;;;;4.50;2.00;;;36.90;34.90;;;;;;5042217;28;20033;-65
2023/08/20 12:14:28;;;;;;;6.32;2.17;;;36.90;35.10;;;;;;5042626;28;20040;-65
2023/08/20 12:16:54;;;;;;;7.60;2.28;;;37.00;35.70;;;;;;5042523;28;20106;-64
2023/08/20 12:19:20;;;;;;;3.78;2.00;;;37.00;35.10;;;;;;5045494;28;20017;-65
2023/08/20 12:21:46;;;;;;;7.85;1.98;;;37.10;35.00;;;;;;5044936;28;20123;-65
2023/08/20 12:24:12;;;;;;;10.07;2.17;;;37.10;34.20;;;;;;5044239;28;20022;-65
2023/08/20 12:26:39;;;;;;;7.45;2.55;;;37.20;34.40;;;;;;5046578;28;20036;-65
2023/08/20 12:29:05;;;;;;;4.88;2.22;;;37.20;33.60;;;;;;4958337;28;20031;-65
2023/08/20 12:31:32;;;;;;;170.30;114.63;;;37.30;33.20;;;;;;5047640;28;20033;-65
2023/08/20 12:33:58;;;;;;;32.30;20.20;;;37.30;33.50;;;;;;5046262;28;20029;-64
2023/08/20 12:36:24;;;;;;;10.35;5.03;;;37.30;32.80;;;;;;5045691;28;20028;-64
2023/08/20 12:38:49;;;;;;;5.28;2.42;;;37.30;33.90;;;;;;5047116;28;20033;-65
2023/08/20 12:41:15;;;;;;;4.93;2.50;;;37.30;33.30;;;;;;5051070;28;20410;-65
2023/08/20 12:43:41;;;;;;;16.02;7.03;;;37.30;34.20;;;;;;5051470;28;20092;-65
2023/08/20 12:46:06;;;;;;;5.22;2.55;;;37.40;34.80;;;;;;5053760;28;20061;-64
2023/08/20 12:48:32;;;;;;;4.28;2.08;;;37.50;34.30;;;;;;5053524;28;20024;-64